Gulf Shores, AL (36542)

3:46 PM CDT on September 02, 2014 (GMT -0500)
West Beach | Change Station
CLOSE
Current Station
Personal Weather Station
Location: Gulf Shores, AL
Elevation: 39 ft
Nearby Weather Stations
Active Advisory: Coastal Hazard Statement

Elev 39 ft 30.25 °N, 87.72 °W | Updated 44 minutes ago

Scattered Clouds
Scattered Clouds
90.0 °F
Feels Like 106 °F
N
0.0
Wind Variable Wind from South
Gusts 0.0 mph

Today
High -- | Low -- °F
--% Chance of Precip.
Yesterday
High -- | Low -- °F
Precip. -- in
6:28 AM 7:12 PM
First Quarter, 55% visible
Pressure 30.00 in
Visibility 10.0 miles
Clouds Scattered Clouds 2300 ft
Heat Index 106 °F
Dew Point 79 °F
Humidity 70%
Rainfall 0.00 in
Snow Depth Not available.
UV 6 out of 12
Pollen 8.60 out of 12
Air Quality Not available.
Flu Activity Not available.
METAR KJKA 022035Z AUTO 17007KT 10SM SCT023 31/24 A3000 RMK AO2 LTG DSNT N AND NW T03050241

More Conditions Fewer Conditions

Pressure 30.00 in
Visibility 10.0 miles
Clouds Scattered Clouds 2300 ft
Heat Index 106 °F
Dew Point 79 °F
Humidity 70%
Rainfall 0.00 in
Snow Depth Not available.
UV 6 out of 12
Pollen 8.60 out of 12
Air Quality Not available.
Flu Activity Not available.
METAR KJKA 022035Z AUTO 17007KT 10SM SCT023 31/24 A3000 RMK AO2 LTG DSNT N AND NW T03050241

More Conditions Fewer Conditions

10-Day Weather Forecast

Almanac

Astronomy

Sep. 02, 2014 Rise Set
Actual Time 6:28 AM CDT 7:12 PM CDT
Civil Twilight 6:03 AM CDT 7:36 PM CDT
Nautical Twilight 5:35 AM CDT 8:05 PM CDT
Astronomical Twilight 5:05 AM CDT 8:34 PM CDT
Moon 1:42 PM CDT No Moon Set
Length of Visible Light 13h 32m
Length of Day
12h 44m
Tomorrow will be 1m 45s shorter.
First Quarter, 55% of the Moon is Illuminated
Today
First Quarter
Sep 8
Full
Sep 15
Last Quarter
Sep 24
New
Oct 1
First Quarter

Today's Extremes

State Highs State Lows

Community

WunderPhotos

Upload Photos

1,749,763 photos uploaded!

WunderBlogs® & News

Nearby

Snow Depth

Station Depth Elevation
No new snow has been reported.

Earthquake Activity

City Distance Mag. Time & Date
No recent earthquake activity has been reported nearby.
Minimum magnitude displayed is 2.5.

Coastal Water Temperatures

Place Temperature
No Stations Reporting

Nearby Weather Stations